Latest Weather Observations for Weipa

IDQ60801

Issued at 4:32 pm EST Thursday 11 February 2016 (issued every 30 minutes, with the page automatically refreshed every 10 minutes)

About weather observations | Map of weather stations | Latest weather observations for QLD | Other Formats
Station Details ID: 027045 Name: WEIPA AERO Lat: -12.68 Lon: 141.92 Height: 17.96 m
Data from the previous 72 hours. | See also: Recent months at Weipa
Date/Time
EST
Temp
°C
App
Temp
°C
Dew
Point
Rel
Hum
%
Delta-T
°C
Wind Press
QNH
hPa
Press
MSL
hPa
Rain
since 9 am
mm
Dir
 
Spd
km/h
Gust
km/h
Spd
kts
Gust
kts
11/04:30pm 29.2 33.8 25.3 79 2.8 ENE 11 17 6 9 1004.3 - 0.6
11/04:00pm 29.0 33.7 24.9 78 2.9 NE 9 13 5 7 1004.0 - 0.6
11/03:30pm 28.9 34.0 24.7 78 2.9 N 6 9 3 5 1004.4 - 0.6
11/03:00pm 28.5 34.3 24.5 79 2.8 NNW 2 7 1 4 1005.0 1004.8 0.6
11/02:30pm 27.8 33.5 24.4 82 2.4 NNE 2 7 1 4 1005.4 - 0.6
11/02:00pm 27.4 33.8 24.9 86 1.7 CALM 0 4 0 2 1005.5 - 0.6
11/01:30pm 27.0 33.3 24.7 87 1.6 CALM 0 4 0 2 1005.5 - 0.6
11/01:00pm 26.7 31.7 24.5 88 1.5 ENE 6 9 3 5 1006.3 - 0.6
11/12:30pm 26.9 30.4 24.9 89 1.4 N 15 26 8 14 1006.9 - 0.6
11/12:00pm 28.8 32.8 25.0 80 2.7 WNW 13 22 7 12 1007.1 1006.9 0.6
11/11:30am 30.5 34.9 25.1 73 3.8 NW 11 20 6 11 1007.3 - 0.4
11/11:00am 30.5 35.0 24.6 70 4.1 NNW 9 15 5 8 1007.7 - 0.4
11/10:30am 30.0 34.9 24.6 73 3.8 NNE 7 13 4 7 1007.9 - 0.4
11/10:00am 29.6 34.1 24.6 74 3.5 ENE 9 17 5 9 1008.0 - 0.4
11/09:30am 28.8 34.3 25.6 83 2.3 E 7 13 4 7 1008.3 - 0.0
11/09:00am 28.2 33.6 25.4 85 2.0 E 7 11 4 6 1008.6 1008.4 0.8
11/08:30am 27.6 32.9 25.8 90 1.3 ESE 9 13 5 7 1008.3 - 0.8
11/08:00am 26.3 31.7 25.2 94 0.8 SE 6 9 3 5 1007.8 - 0.8
11/07:30am 25.5 30.9 24.5 94 0.7 SE 4 6 2 3 1007.6 - 0.8
11/07:00am 25.1 30.0 24.3 95 0.6 SE 6 9 3 5 1007.3 - 0.8
11/06:30am 25.1 29.9 24.2 95 0.6 S 6 7 3 4 1007.0 - 0.8
11/06:03am 25.3 30.5 24.2 94 0.8 S 4 7 2 4 1006.7 - 0.8
11/06:00am 25.2 30.0 24.2 94 0.7 S 6 7 3 4 1006.7 1006.5 0.8
11/05:52am 25.5 30.6 24.1 92 1.0 S 4 9 2 5 1006.5 - 0.8
11/05:35am 25.1 30.1 23.8 92 0.9 SW 4 7 2 4 1006.5 - 0.8
11/05:30am 25.2 30.2 23.9 92 0.9 WSW 4 11 2 6 1006.5 - 0.8
11/05:22am 25.5 31.1 24.8 96 0.5 SW 4 11 2 6 1006.4 - 0.4
11/05:00am 25.8 31.0 24.8 94 0.7 E 6 7 3 4 1006.1 - 0.0
11/04:30am 25.7 30.8 24.7 94 0.7 ENE 6 9 3 5 1005.9 - 0.0
11/04:00am 25.8 31.3 24.6 93 0.8 ENE 4 7 2 4 1005.9 - 0.0
11/03:30am 25.9 31.0 24.6 92 0.9 NE 6 9 3 5 1005.6 - 0.0
11/03:00am 26.0 31.3 24.9 94 0.8 E 6 9 3 5 1005.5 1005.3 0.0
11/02:30am 26.0 31.2 24.8 93 0.8 ENE 6 9 3 5 1005.7 - 0.0
11/02:00am 26.1 31.0 24.7 92 1.0 NE 7 13 4 7 1005.8 - 0.0
11/01:30am 26.1 31.3 24.8 92 0.9 NE 6 9 3 5 1006.1 - 0.0
11/01:00am 26.2 31.1 24.7 91 1.0 ENE 7 11 4 6 1006.6 - 0.0
11/12:30am 26.4 31.2 24.5 89 1.3 NE 7 13 4 7 1006.7 - 0.0
11/12:00am 26.5 31.6 24.7 90 1.3 ENE 6 9 3 5 1007.3 1007.1 0.0
 
Date/Time
EST
Temp
°C
App
Temp
°C
Dew
Point
Rel
Hum
%
Delta-T
°C
Wind Press
QNH
hPa
Press
MSL
hPa
Rain
since 9 am
mm
Dir
 
Spd
km/h
Gust
km/h
Spd
kts
Gust
kts
10/11:30pm 26.7 31.6 24.7 89 1.4 ENE 7 11 4 6 1007.6 - 0.0
10/11:00pm 26.9 31.9 24.8 88 1.5 ENE 7 11 4 6 1008.0 - 0.0
10/10:30pm 27.2 32.1 24.6 86 1.8 NE 7 13 4 7 1008.2 - 0.0
10/10:00pm 27.4 32.2 25.1 87 1.6 ENE 9 11 5 6 1007.8 - 0.0
10/09:30pm 27.8 33.3 25.3 86 1.8 ENE 6 7 3 4 1007.5 - 0.0
10/09:00pm 28.1 33.2 24.7 82 2.4 NE 6 7 3 4 1007.1 1006.9 0.0
10/08:30pm 28.4 34.3 25.3 83 2.2 NNE 4 6 2 3 1006.4 - 0.0
10/08:00pm 29.0 35.2 25.2 80 2.7 NE 2 4 1 2 1005.9 - 0.0
10/07:30pm 29.4 34.8 25.2 78 3.0 N 6 7 3 4 1005.6 - 0.0
10/07:00pm 29.7 35.3 24.9 75 3.4 W 4 7 2 4 1005.4 - 0.0
10/06:30pm 30.3 35.5 24.8 72 3.9 W 6 9 3 5 1005.1 - 0.0
10/06:00pm 30.1 34.2 23.9 69 4.3 W 9 17 5 9 1005.1 1004.9 0.0
10/05:30pm 30.5 34.6 24.6 70 4.1 W 11 19 6 10 1004.9 - 0.0
10/05:00pm 31.1 33.5 23.0 62 5.6 W 15 24 8 13 1004.9 - 0.0
10/04:30pm 31.6 35.8 24.8 67 4.8 W 11 22 6 12 1004.6 - 0.0
10/04:00pm 32.1 35.8 23.9 62 5.7 WNW 11 26 6 14 1004.8 - 0.0
10/03:30pm 31.6 35.7 24.6 66 4.9 WNW 11 20 6 11 1004.9 - 0.0
10/03:00pm 32.0 35.2 24.3 63 5.4 NW 15 24 8 13 1005.2 1005.0 0.0
10/02:30pm 31.7 34.9 24.3 65 5.2 NW 15 22 8 12 1005.3 - 0.0
10/02:00pm 31.5 34.1 24.6 67 4.8 NNW 19 24 10 13 1005.6 - 0.0
10/01:30pm 31.9 34.0 23.8 62 5.6 NNW 19 28 10 15 1006.1 - 0.0
10/01:00pm 32.5 35.8 22.6 56 6.8 W 9 19 5 10 1006.2 - 0.0
10/12:30pm 31.7 36.7 23.9 63 5.4 ENE 4 9 2 5 1006.7 - 0.0
10/12:00pm 30.7 35.6 24.3 68 4.5 W 6 11 3 6 1007.1 1006.9 0.0
10/11:30am 31.8 36.9 24.0 63 5.4 SW 4 9 2 5 1007.2 - 0.0
10/11:00am 31.5 36.2 23.4 62 5.6 WSW 4 9 2 5 1007.6 - 0.0
10/10:30am 30.4 36.4 24.9 72 3.9 ESE 2 13 1 7 1007.9 - 0.0
10/10:00am 29.7 35.8 25.0 76 3.3 S 2 6 1 3 1008.2 - 0.0
10/09:30am 29.4 35.0 25.4 79 2.8 SE 6 9 3 5 1008.3 - 0.0
10/09:00am 28.4 33.1 25.0 82 2.4 ESE 9 11 5 6 1008.3 1008.1 0.0
10/08:30am 27.7 32.8 25.0 85 1.9 E 7 11 4 6 1008.2 - 0.0
10/08:00am 26.9 32.2 25.2 90 1.2 ESE 7 11 4 6 1007.8 - 0.0
10/07:30am 26.1 31.5 25.2 95 0.6 ENE 6 7 3 4 1007.4 - 0.0
10/07:00am 25.9 31.3 25.2 96 0.5 ESE 6 7 3 4 1007.1 - 0.0
10/06:30am 25.6 31.0 25.1 97 0.3 E 6 7 3 4 1006.7 - 0.0
10/06:00am 25.7 31.5 25.1 96 0.4 ESE 4 7 2 4 1006.4 1006.2 0.0
10/05:30am 25.9 31.3 25.2 96 0.5 ESE 6 7 3 4 1006.3 - 0.0
10/05:00am 25.8 31.2 25.1 96 0.5 SE 6 9 3 5 1006.1 - 0.0
10/04:30am 25.8 31.1 25.0 95 0.6 ESE 6 7 3 4 1005.9 - 0.0
10/04:00am 25.8 30.9 25.0 95 0.6 ESE 7 9 4 5 1005.9 - 0.0
10/03:30am 25.9 31.2 25.0 95 0.6 E 6 7 3 4 1005.8 - 0.0
10/03:00am 26.1 31.5 25.2 95 0.6 ESE 6 7 3 4 1005.9 1005.7 0.0
10/02:30am 26.2 31.9 25.0 93 0.8 ESE 4 7 2 4 1006.1 - 0.0
10/02:00am 26.4 32.6 25.2 93 0.8 ESE 2 4 1 2 1006.3 - 0.0
10/01:30am 26.6 32.4 25.2 92 1.0 SE 4 6 2 3 1006.9 - 0.0
10/01:00am 26.4 33.0 25.3 94 0.8 CALM 0 0 0 0 1007.3 - 0.0
10/12:30am 26.5 32.0 25.3 93 0.8 E 6 6 3 3 1008.0 - 0.0
10/12:00am 26.8 33.4 25.3 91 1.1 CALM 0 0 0 0 1008.2 1008.0 0.0
 
Date/Time
EST
Temp
°C
App
Temp
°C
Dew
Point
Rel
Hum
%
Delta-T
°C
Wind Press
QNH
hPa
Press
MSL
hPa
Rain
since 9 am
mm
Dir
 
Spd
km/h
Gust
km/h
Spd
kts
Gust
kts
09/11:30pm 26.7 33.3 25.3 92 1.0 CALM 0 0 0 0 1008.5 - 0.0
09/11:00pm 27.3 33.9 25.3 89 1.4 CALM 0 0 0 0 1008.8 - 0.0
09/10:30pm 27.5 34.2 25.4 88 1.5 CALM 0 0 0 0 1008.8 - 0.0
09/10:00pm 28.2 34.7 25.1 83 2.2 CALM 0 4 0 2 1008.5 - 0.0
09/09:30pm 28.4 33.9 24.7 80 2.6 SE 4 6 2 3 1008.5 - 0.0
09/09:00pm 28.9 34.7 24.5 77 3.1 SSW 2 6 1 3 1008.3 1008.1 0.0
09/08:30pm 28.9 34.6 24.4 76 3.1 SW 2 6 1 3 1007.9 - 0.0
09/08:00pm 29.0 34.5 24.1 75 3.4 W 2 7 1 4 1007.7 - 0.0
09/07:30pm 29.4 33.9 23.7 71 3.9 WSW 6 13 3 7 1007.3 - 0.0
09/07:00pm 29.7 34.0 23.7 70 4.1 W 7 15 4 8 1006.7 - 0.0
09/06:30pm 30.2 33.3 22.9 65 5.0 W 11 19 6 10 1006.7 - 0.0
09/06:00pm 30.6 33.2 22.7 62 5.4 W 13 22 7 12 1006.1 1005.9 0.0
09/05:30pm 30.9 33.8 23.2 63 5.3 W 13 22 7 12 1005.5 - 0.0
09/05:00pm 31.0 33.6 22.7 61 5.7 W 13 24 7 13 1005.4 - 0.0
09/04:30pm 31.8 34.4 22.6 58 6.3 W 13 22 7 12 1005.1 - 0.0
09/04:00pm 31.5 33.2 22.4 58 6.2 W 17 30 9 16 1005.2 - 0.0
09/03:30pm 32.1 34.5 22.9 58 6.3 W 15 26 8 14 1005.4 - 0.0
09/03:00pm 31.9 34.8 23.8 62 5.6 W 15 26 8 14 1005.6 1005.4 0.0
09/02:30pm 31.8 35.0 24.3 64 5.2 W 15 28 8 15 1006.0 - 0.0
09/02:00pm 31.8 35.2 24.6 65 5.1 W 15 28 8 15 1006.4 - 0.0
09/01:30pm 31.9 35.3 24.6 65 5.1 W 15 22 8 12 1006.9 - 0.0
09/01:00pm 32.3 35.4 23.6 60 6.0 W 13 22 7 12 1007.5 - 0.0
09/12:30pm 32.5 36.6 23.9 60 6.0 W 9 15 5 8 1008.2 - 0.0
09/12:00pm 32.2 35.4 22.4 56 6.7 W 9 19 5 10 1008.7 1008.5 0.0
09/11:30am 31.5 35.3 23.4 62 5.6 WSW 9 17 5 9 1008.8 - 0.0
09/11:00am 31.6 35.9 23.7 63 5.5 NW 7 19 4 10 1009.2 - 0.0
09/10:30am 30.6 35.4 24.2 68 4.5 WNW 6 11 3 6 1009.3 - 0.0
09/10:00am 30.6 35.6 23.9 67 4.7 WNW 4 7 2 4 1009.3 - 0.0
09/09:30am 29.5 35.1 24.2 73 3.7 WSW 2 6 1 3 1009.3 - 0.0
09/09:00am 29.7 35.6 24.7 74 3.5 E 2 4 1 2 1009.1 1008.9 0.0
09/08:30am 28.2 33.4 24.8 82 2.4 NNE 6 9 3 5 1009.0 - 0.0
09/08:00am 26.9 32.0 24.7 88 1.5 NNE 6 7 3 4 1008.6 - 0.0
09/07:30am 26.1 32.4 24.8 92 0.9 CALM 0 0 0 0 1008.3 - 0.0
09/07:00am 24.9 30.9 24.3 96 0.4 CALM 0 0 0 0 1008.1 - 0.0
09/06:30am 24.7 30.5 24.0 96 0.5 CALM 0 0 0 0 1007.9 - 0.0
09/06:00am 25.0 30.9 24.1 95 0.6 CALM 0 0 0 0 1007.5 1007.3 0.0
09/05:30am 24.8 30.7 24.1 96 0.5 CALM 0 2 0 1 1007.2 - 0.0
09/05:00am 25.1 31.1 24.3 95 0.6 CALM 0 4 0 2 1007.0 - 0.0
09/04:30am 25.2 31.3 24.4 95 0.6 CALM 0 4 0 2 1007.1 - 0.0
09/04:00am 25.5 30.4 24.4 94 0.8 E 6 9 3 5 1007.0 - 0.0
09/03:30am 25.5 30.8 24.3 93 0.8 E 4 6 2 3 1006.9 - 0.0
09/03:00am 25.9 32.2 24.7 93 0.8 CALM 0 0 0 0 1007.1 1006.9 0.0
09/02:30am 26.1 31.6 24.7 92 1.0 ESE 4 6 2 3 1007.2 - 0.0
09/02:00am 26.1 32.6 25.0 94 0.8 CALM 0 0 0 0 1007.4 - 0.0
09/01:30am 26.5 32.9 24.9 91 1.1 CALM 0 4 0 2 1007.7 - 0.0
09/01:00am 26.7 32.2 24.7 89 1.4 SSE 4 6 2 3 1008.0 - 0.0
09/12:30am 27.1 33.1 24.8 87 1.6 ESE 2 4 1 2 1008.4 - 0.0
09/12:00am 27.4 33.5 25.0 87 1.7 E 2 6 1 3 1008.6 1008.4 0.0
 
Date/Time
EST
Temp
°C
App
Temp
°C
Dew
Point
Rel
Hum
%
Delta-T
°C
Wind Press
QNH
hPa
Press
MSL
hPa
Rain
since 9 am
mm
Dir
 
Spd
km/h
Gust
km/h
Spd
kts
Gust
kts
08/11:30pm 27.9 33.3 24.5 82 2.4 SW 4 6 2 3 1008.4 - 0.0
08/11:00pm 27.8 33.6 24.6 83 2.2 SW 2 4 1 2 1008.4 - 0.0
08/10:30pm 27.9 34.2 24.7 83 2.2 CALM 0 0 0 0 1008.6 - 0.0
08/10:00pm 28.3 33.9 24.2 78 2.8 SSW 2 6 1 3 1008.6 - 0.0
08/09:30pm 28.5 34.3 24.5 79 2.8 SW 2 6 1 3 1008.6 - 0.0
08/09:00pm 29.0 34.9 24.7 77 3.0 SW 2 6 1 3 1008.7 1008.5 0.0
08/08:30pm 28.9 34.4 24.6 77 3.0 SW 4 7 2 4 1008.1 - 0.0
08/08:00pm 29.0 34.0 24.5 76 3.1 WSW 6 9 3 5 1007.9 - 0.0
08/07:30pm 29.3 33.9 24.1 73 3.6 WSW 7 15 4 8 1007.6 - 0.0
08/07:00pm 29.5 33.5 23.7 71 4.0 W 9 19 5 10 1007.2 - 0.0
08/06:30pm 30.2 33.9 23.9 69 4.4 W 11 20 6 11 1006.8 - 0.0
08/06:00pm 30.6 33.4 23.7 66 4.8 W 15 24 8 13 1006.5 1006.3 0.0
08/05:30pm 30.7 32.8 23.7 66 4.8 W 19 30 10 16 1006.4 - 0.0
08/05:00pm 31.2 33.3 23.7 64 5.2 W 19 32 10 17 1006.0 - 0.0

Other Formats:

Comma delimited format used in spreadsheet applications
http://www.bom.gov.au/fwo/IDQ60801/IDQ60801.94170.axf

JavaScript Object Notation format (JSON) in row-major order
http://www.bom.gov.au/fwo/IDQ60801/IDQ60801.94170.json